METAR Data
IDs: Format: Raw Decoded Include TAF

Data at: 1337 UTC 26 Feb 2021

UKDD 261330Z 22004MPS 180V250 CAVOK 13/07 Q1019 R26/210370 NOSIG